LFOH 181700Z AUTO 31008KT 9999 FEW008 20/16 Q1016 NOSIG

ElémentsDécodage
LFOH Station météo située sur l'aérodrome de LE-HAVRE Octeville
181700Z émis le 18 du mois à 17h00 UTC
AUTO Bulletin édité par un automate
31008KT vent du 310°, 08 noeuds
9999 visibilité horizontale supérieure à 10 Km
FEW008 nuages rares (1/8 à 2/8) à 800 pieds
20/16 température 20°C, point de rosée 16°C
 soit une humidité relative de 78%
Q1016 la pression au niveau de la mer (QNH) est de 1016 hPa
NOSIG Pas de changement significatif prévu au cours des deux heures suivant l'heure de l'observation